Time;durP1;ratioP1;P1;durP2;ratioP2;P2;SDS_P1;SDS_P2;PMS_P1;PMS_P2;Temp;Humidity;BMP_temperature;BMP_pressure;BME280_temperature;BME280_humidity;BME280_pressure;Samples;Min_cycle;Max_cycle;Signal;HPM_P1;HPM_P2
2023/12/06 00:01:58;;;;;;;12.30;11.70;;;;;;;;;;5074403;28;20095;-64
2023/12/06 00:04:23;;;;;;;11.80;11.30;;;;;;;;;;5072856;28;20024;-63
2023/12/06 00:06:49;;;;;;;11.80;11.30;;;;;;;;;;5074480;28;20078;-63
2023/12/06 00:09:15;;;;;;;12.25;11.65;;;;;;;;;;5080059;28;20032;-63
2023/12/06 00:11:40;;;;;;;12.23;11.63;;;;;;;;;;5088963;28;20027;-63
2023/12/06 00:14:05;;;;;;;11.93;11.32;;;;;;;;;;5078675;28;20077;-63
2023/12/06 00:16:31;;;;;;;12.55;11.95;;;;;;;;;;5077849;28;20121;-65
2023/12/06 00:18:58;;;;;;;12.20;11.60;;;;;;;;;;5074392;28;20044;-63
2023/12/06 00:21:23;;;;;;;12.52;11.93;;;;;;;;;;5074129;28;20027;-63
2023/12/06 00:23:48;;;;;;;12.30;11.70;;;;;;;;;;5070099;28;20028;-64
2023/12/06 00:26:14;;;;;;;12.98;12.38;;;;;;;;;;5073249;28;20555;-63
2023/12/06 00:28:39;;;;;;;12.55;11.95;;;;;;;;;;5077729;28;20031;-63
2023/12/06 00:31:05;;;;;;;12.27;11.68;;;;;;;;;;5079601;28;20031;-62
2023/12/06 00:33:30;;;;;;;11.98;11.43;;;;;;;;;;5078479;28;20052;-63
2023/12/06 00:35:55;;;;;;;12.23;11.63;;;;;;;;;;5079757;28;20021;-62
2023/12/06 00:38:21;;;;;;;12.30;11.70;;;;;;;;;;5069473;28;20017;-64
2023/12/06 00:40:46;;;;;;;12.13;11.52;;;;;;;;;;5075510;28;20028;-63
2023/12/06 00:43:11;;;;;;;12.13;11.52;;;;;;;;;;5070417;28;20104;-63
2023/12/06 00:45:37;;;;;;;12.30;11.70;;;;;;;;;;5075881;28;20035;-64
2023/12/06 00:48:02;;;;;;;12.40;11.80;;;;;;;;;;5071053;28;20028;-62
2023/12/06 00:50:27;;;;;;;12.27;11.68;;;;;;;;;;5073562;28;20111;-62
2023/12/06 00:52:53;;;;;;;12.50;11.90;;;;;;;;;;5067891;28;20110;-62
2023/12/06 00:55:18;;;;;;;12.70;12.10;;;;;;;;;;5074176;28;20145;-63
2023/12/06 00:57:44;;;;;;;12.35;11.75;;;;;;;;;;5074217;28;20031;-62
2023/12/06 01:00:10;;;;;;;12.52;11.93;;;;;;;;;;5079201;28;20024;-64
2023/12/06 01:02:35;;;;;;;11.98;11.40;;;;;;;;;;5075333;28;20024;-63
2023/12/06 01:05:01;;;;;;;11.70;11.20;;;;;;;;;;5079245;28;20472;-64
2023/12/06 01:07:26;;;;;;;11.77;11.27;;;;;;;;;;5069368;28;20056;-65
2023/12/06 01:09:52;;;;;;;12.15;11.55;;;;;;;;;;5072164;28;20017;-63
2023/12/06 01:12:17;;;;;;;12.20;11.60;;;;;;;;;;5080144;28;20481;-63
2023/12/06 01:14:43;;;;;;;12.57;11.98;;;;;;;;;;5073766;28;20024;-65
2023/12/06 01:17:08;;;;;;;12.70;12.10;;;;;;;;;;5074466;28;20051;-64
2023/12/06 01:19:34;;;;;;;12.95;12.30;;;;;;;;;;5074433;28;20025;-63
2023/12/06 01:21:59;;;;;;;12.20;11.60;;;;;;;;;;5075105;28;20016;-63
2023/12/06 01:24:24;;;;;;;12.10;11.50;;;;;;;;;;5073700;28;20103;-63
2023/12/06 01:26:50;;;;;;;12.05;11.45;;;;;;;;;;5074918;28;20070;-63
2023/12/06 01:29:15;;;;;;;12.10;11.50;;;;;;;;;;5075784;28;20039;-63
2023/12/06 01:31:41;;;;;;;11.73;11.23;;;;;;;;;;5074516;28;20119;-63
2023/12/06 01:34:07;;;;;;;12.07;11.52;;;;;;;;;;5073610;28;20042;-64
2023/12/06 01:36:32;;;;;;;12.10;11.50;;;;;;;;;;5075279;28;20024;-64
2023/12/06 01:38:58;;;;;;;11.82;11.27;;;;;;;;;;5074305;28;20025;-63
2023/12/06 01:41:23;;;;;;;12.90;12.25;;;;;;;;;;5074950;28;20021;-64
2023/12/06 01:43:48;;;;;;;12.60;12.00;;;;;;;;;;5077721;28;20027;-63
2023/12/06 01:46:14;;;;;;;12.35;11.75;;;;;;;;;;5074688;28;20012;-63
2023/12/06 01:48:41;;;;;;;12.60;12.00;;;;;;;;;;5084544;28;20104;-63
2023/12/06 01:51:07;;;;;;;12.30;11.70;;;;;;;;;;5075563;28;20591;-63
2023/12/06 01:53:33;;;;;;;12.45;11.85;;;;;;;;;;5073434;28;20028;-63
2023/12/06 01:55:59;;;;;;;11.93;11.40;;;;;;;;;;5074484;28;20024;-63
2023/12/06 01:58:28;;;;;;;12.45;11.85;;;;;;;;;;5071639;28;20021;-62
2023/12/06 02:00:53;;;;;;;11.63;11.13;;;;;;;;;;5072810;28;20063;-64
2023/12/06 02:03:18;;;;;;;11.70;11.20;;;;;;;;;;5079125;28;20040;-62
2023/12/06 02:05:44;;;;;;;11.90;11.35;;;;;;;;;;5072001;28;20016;-63
2023/12/06 02:08:10;;;;;;;12.15;11.55;;;;;;;;;;5074111;28;20115;-63
2023/12/06 02:10:35;;;;;;;12.32;11.73;;;;;;;;;;5076172;28;20028;-63
2023/12/06 02:13:01;;;;;;;12.10;11.50;;;;;;;;;;5074324;28;20016;-63
2023/12/06 02:15:26;;;;;;;12.57;11.98;;;;;;;;;;5071871;28;20537;-63
2023/12/06 02:17:52;;;;;;;12.30;11.70;;;;;;;;;;5071920;28;20137;-64
2023/12/06 02:20:17;;;;;;;12.50;11.90;;;;;;;;;;5071243;28;20536;-63
2023/12/06 02:22:43;;;;;;;13.18;12.48;;;;;;;;;;5070284;28;20024;-63
2023/12/06 02:25:10;;;;;;;11.77;11.27;;;;;;;;;;5066459;28;20468;-62
2023/12/06 02:27:36;;;;;;;12.30;11.70;;;;;;;;;;5075763;28;20032;-64
2023/12/06 02:30:01;;;;;;;11.80;11.27;;;;;;;;;;5075254;28;20043;-64
2023/12/06 02:32:26;;;;;;;12.00;11.40;;;;;;;;;;5083865;28;20032;-63
2023/12/06 02:34:54;;;;;;;12.15;11.55;;;;;;;;;;5078859;28;20027;-63
2023/12/06 02:37:20;;;;;;;12.10;11.50;;;;;;;;;;5080276;28;20031;-63
2023/12/06 02:39:47;;;;;;;12.85;12.18;;;;;;;;;;5075692;28;20485;-63
2023/12/06 02:42:12;;;;;;;12.20;11.60;;;;;;;;;;5076364;28;20059;-63
2023/12/06 02:44:38;;;;;;;12.40;11.80;;;;;;;;;;5076528;28;20066;-63
2023/12/06 02:47:04;;;;;;;12.65;12.05;;;;;;;;;;5082737;28;20059;-63
2023/12/06 02:49:29;;;;;;;12.27;11.68;;;;;;;;;;5075254;28;21332;-63
2023/12/06 02:51:55;;;;;;;12.15;11.55;;;;;;;;;;5079503;28;20036;-63
2023/12/06 02:54:20;;;;;;;12.77;12.15;;;;;;;;;;5084421;28;20396;-63
2023/12/06 02:56:46;;;;;;;13.00;12.30;;;;;;;;;;5076924;28;20031;-63
2023/12/06 02:59:11;;;;;;;12.48;11.88;;;;;;;;;;5072417;28;20395;-64
2023/12/06 03:01:36;;;;;;;11.80;11.25;;;;;;;;;;5073936;28;20407;-63
2023/12/06 03:04:02;;;;;;;11.90;11.30;;;;;;;;;;5070575;28;20399;-62
2023/12/06 03:06:27;;;;;;;12.52;11.93;;;;;;;;;;5069510;28;20113;-63
2023/12/06 03:08:52;;;;;;;12.10;11.50;;;;;;;;;;5064473;28;20052;-62
2023/12/06 03:11:19;;;;;;;11.90;11.30;;;;;;;;;;5074204;28;20610;-63
2023/12/06 03:13:44;;;;;;;12.32;11.73;;;;;;;;;;5076443;28;20024;-63
2023/12/06 03:16:09;;;;;;;12.60;12.00;;;;;;;;;;5083125;28;20101;-64
2023/12/06 03:18:35;;;;;;;12.43;11.82;;;;;;;;;;5078264;28;20028;-63
2023/12/06 03:21:00;;;;;;;12.52;11.93;;;;;;;;;;5076231;28;20460;-63
2023/12/06 03:23:26;;;;;;;12.45;11.85;;;;;;;;;;5082225;28;20492;-62
2023/12/06 03:25:51;;;;;;;12.00;11.40;;;;;;;;;;5077001;28;20024;-64
2023/12/06 03:28:17;;;;;;;12.40;11.80;;;;;;;;;;5074870;28;20107;-64
2023/12/06 03:30:42;;;;;;;12.77;12.18;;;;;;;;;;5074859;28;20187;-63
2023/12/06 03:33:07;;;;;;;12.68;12.07;;;;;;;;;;5082491;28;20020;-62
2023/12/06 03:35:33;;;;;;;12.82;12.15;;;;;;;;;;5075023;28;20055;-63
2023/12/06 03:37:58;;;;;;;12.10;11.50;;;;;;;;;;5079931;28;20058;-64
2023/12/06 03:40:23;;;;;;;12.32;11.73;;;;;;;;;;5075209;28;20028;-63
2023/12/06 03:42:49;;;;;;;12.00;11.40;;;;;;;;;;5077703;28;20087;-62
2023/12/06 03:45:14;;;;;;;11.75;11.20;;;;;;;;;;5079530;28;20016;-63
2023/12/06 03:47:40;;;;;;;12.10;11.50;;;;;;;;;;5080282;28;20055;-64
2023/12/06 03:50:05;;;;;;;11.80;11.20;;;;;;;;;;5080373;28;20392;-64
2023/12/06 03:52:31;;;;;;;11.90;11.35;;;;;;;;;;5083499;28;20387;-61
2023/12/06 03:54:56;;;;;;;11.65;11.15;;;;;;;;;;5074299;28;20017;-64
2023/12/06 03:57:21;;;;;;;12.23;11.63;;;;;;;;;;5076522;28;20024;-63
2023/12/06 03:59:47;;;;;;;12.30;11.70;;;;;;;;;;5075267;28;20020;-63
2023/12/06 04:02:13;;;;;;;12.23;11.63;;;;;;;;;;5078139;28;20020;-63
2023/12/06 04:04:38;;;;;;;12.20;11.60;;;;;;;;;;5080681;28;20055;-64
2023/12/06 04:07:04;;;;;;;12.50;11.90;;;;;;;;;;5066003;28;20025;-63
2023/12/06 04:09:29;;;;;;;12.45;11.85;;;;;;;;;;5069059;28;20020;-64
2023/12/06 04:11:55;;;;;;;11.80;11.25;;;;;;;;;;5070521;28;20027;-64
2023/12/06 04:14:20;;;;;;;11.98;11.38;;;;;;;;;;5071696;28;20032;-63
2023/12/06 04:16:46;;;;;;;12.40;11.80;;;;;;;;;;5072328;28;20037;-64
2023/12/06 04:19:11;;;;;;;11.77;11.23;;;;;;;;;;5075295;28;20024;-63
2023/12/06 04:21:37;;;;;;;12.25;11.65;;;;;;;;;;5073125;28;20078;-63
2023/12/06 04:24:02;;;;;;;12.73;12.13;;;;;;;;;;5073135;28;20021;-62
2023/12/06 04:26:27;;;;;;;12.30;11.70;;;;;;;;;;5077150;28;20398;-62
2023/12/06 04:28:53;;;;;;;12.40;11.80;;;;;;;;;;5076969;28;20063;-63
2023/12/06 04:31:18;;;;;;;12.65;12.05;;;;;;;;;;5067067;28;20024;-64
2023/12/06 04:33:44;;;;;;;12.32;11.73;;;;;;;;;;5067142;28;20060;-64
2023/12/06 04:36:09;;;;;;;12.40;11.80;;;;;;;;;;5079399;28;20099;-63
2023/12/06 04:38:35;;;;;;;12.27;11.68;;;;;;;;;;5079096;28;20024;-64
2023/12/06 04:41:00;;;;;;;11.95;11.35;;;;;;;;;;5076236;28;20016;-64
2023/12/06 04:43:25;;;;;;;12.05;11.45;;;;;;;;;;5071168;28;20476;-63
2023/12/06 04:45:51;;;;;;;11.45;10.95;;;;;;;;;;5084108;28;20024;-64
2023/12/06 04:48:16;;;;;;;13.50;12.80;;;;;;;;;;5076465;28;20158;-64
2023/12/06 04:50:42;;;;;;;12.35;11.75;;;;;;;;;;5081338;28;20124;-63
2023/12/06 04:53:07;;;;;;;12.55;11.95;;;;;;;;;;5073913;28;20037;-64
2023/12/06 04:55:33;;;;;;;12.15;11.55;;;;;;;;;;5074416;28;20029;-63
2023/12/06 04:57:58;;;;;;;12.88;12.23;;;;;;;;;;5076765;28;20028;-63
2023/12/06 05:00:23;;;;;;;12.40;11.80;;;;;;;;;;5082681;28;20383;-63
2023/12/06 05:02:49;;;;;;;12.93;12.23;;;;;;;;;;5073672;28;20702;-62
2023/12/06 05:05:15;;;;;;;12.93;12.25;;;;;;;;;;5073741;28;20023;-63
2023/12/06 05:07:40;;;;;;;12.20;11.60;;;;;;;;;;5070550;28;20111;-63
2023/12/06 05:10:06;;;;;;;12.60;12.00;;;;;;;;;;5069914;28;20036;-63
2023/12/06 05:12:31;;;;;;;12.50;11.90;;;;;;;;;;5078913;28;20035;-63
2023/12/06 05:14:57;;;;;;;12.50;11.90;;;;;;;;;;5077084;28;20049;-64
2023/12/06 05:17:22;;;;;;;12.27;11.68;;;;;;;;;;5072607;28;20020;-64
2023/12/06 05:19:47;;;;;;;12.30;11.70;;;;;;;;;;5074404;28;20096;-63
2023/12/06 05:22:13;;;;;;;12.00;11.40;;;;;;;;;;5074681;28;20047;-64
2023/12/06 05:24:38;;;;;;;12.70;12.10;;;;;;;;;;5072134;28;20114;-62
2023/12/06 05:27:04;;;;;;;12.43;11.82;;;;;;;;;;5075976;28;20032;-64
2023/12/06 05:29:31;;;;;;;12.52;11.93;;;;;;;;;;5073935;28;20020;-65
2023/12/06 05:31:57;;;;;;;13.43;12.73;;;;;;;;;;5073378;28;20047;-64
2023/12/06 05:34:22;;;;;;;12.65;12.02;;;;;;;;;;5071986;28;20539;-65
2023/12/06 05:36:48;;;;;;;13.05;12.35;;;;;;;;;;5072195;28;20028;-64
2023/12/06 05:39:14;;;;;;;12.15;11.55;;;;;;;;;;5073845;28;20032;-63
2023/12/06 05:41:39;;;;;;;12.80;12.15;;;;;;;;;;5077037;28;20373;-64
2023/12/06 05:44:05;;;;;;;13.30;12.60;;;;;;;;;;5075674;28;20108;-64
2023/12/06 05:46:31;;;;;;;12.52;11.93;;;;;;;;;;5074785;28;20570;-65
2023/12/06 05:48:56;;;;;;;13.18;12.48;;;;;;;;;;5071792;28;20021;-64
2023/12/06 05:51:21;;;;;;;12.80;12.13;;;;;;;;;;5074698;28;20025;-64
2023/12/06 05:53:48;;;;;;;13.93;13.13;;;;;;;;;;5074069;28;20024;-63
2023/12/06 05:56:13;;;;;;;13.50;12.80;;;;;;;;;;5066100;28;20103;-64
2023/12/06 05:58:39;;;;;;;13.95;13.15;;;;;;;;;;5072172;28;20099;-64
2023/12/06 06:01:04;;;;;;;14.25;13.45;;;;;;;;;;5073985;28;20170;-62
2023/12/06 06:03:30;;;;;;;13.05;12.35;;;;;;;;;;5071477;28;20556;-65
2023/12/06 06:05:55;;;;;;;14.43;13.63;;;;;;;;;;5069473;28;20016;-63
2023/12/06 06:08:20;;;;;;;12.27;11.68;;;;;;;;;;5068919;28;20464;-63
2023/12/06 06:10:46;;;;;;;12.48;11.88;;;;;;;;;;5072454;28;20043;-65
2023/12/06 06:13:11;;;;;;;12.35;11.75;;;;;;;;;;5073713;28;20124;-64
2023/12/06 06:15:36;;;;;;;12.48;11.88;;;;;;;;;;5072306;28;20044;-64
2023/12/06 06:18:05;;;;;;;12.40;11.80;;;;;;;;;;5077039;28;20016;-64
2023/12/06 06:20:31;;;;;;;13.88;13.10;;;;;;;;;;5073644;28;20056;-64
2023/12/06 06:22:56;;;;;;;12.65;12.02;;;;;;;;;;5076515;28;20079;-64
2023/12/06 06:25:21;;;;;;;12.80;12.10;;;;;;;;;;5072620;28;20444;-65
2023/12/06 06:27:47;;;;;;;12.60;12.00;;;;;;;;;;5072912;28;20520;-64
2023/12/06 06:30:13;;;;;;;12.65;12.05;;;;;;;;;;5072517;28;20103;-64
2023/12/06 06:32:38;;;;;;;12.35;11.75;;;;;;;;;;5071769;28;20115;-64
2023/12/06 06:35:04;;;;;;;12.68;12.02;;;;;;;;;;5067144;28;20736;-65
2023/12/06 06:37:30;;;;;;;12.50;11.90;;;;;;;;;;5070597;28;20036;-65
2023/12/06 06:39:56;;;;;;;12.15;11.55;;;;;;;;;;5075147;28;20467;-65
2023/12/06 06:42:22;;;;;;;13.05;12.35;;;;;;;;;;5066573;28;20016;-65
2023/12/06 06:44:51;;;;;;;12.80;12.13;;;;;;;;;;5069469;28;20483;-64
2023/12/06 06:47:16;;;;;;;13.27;12.57;;;;;;;;;;5062679;28;20025;-64
2023/12/06 06:49:42;;;;;;;12.85;12.23;;;;;;;;;;5074783;28;20590;-64
2023/12/06 06:52:07;;;;;;;13.73;13.02;;;;;;;;;;5070192;28;20073;-71
2023/12/06 06:54:33;;;;;;;13.50;12.80;;;;;;;;;;5056303;28;20484;-66
2023/12/06 06:56:58;;;;;;;14.32;13.52;;;;;;;;;;5065315;28;20455;-66
2023/12/06 06:59:23;;;;;;;13.43;12.73;;;;;;;;;;5063601;28;20392;-66
2023/12/06 07:01:48;;;;;;;14.30;13.50;;;;;;;;;;5060978;28;20827;-65
2023/12/06 07:04:14;;;;;;;14.25;13.45;;;;;;;;;;5064079;28;20023;-68
2023/12/06 07:06:39;;;;;;;13.40;12.70;;;;;;;;;;5072752;28;20043;-67
2023/12/06 07:09:05;;;;;;;13.38;12.68;;;;;;;;;;5069317;28;20023;-65
2023/12/06 07:11:30;;;;;;;13.38;12.68;;;;;;;;;;5062162;28;20028;-66
2023/12/06 07:13:55;;;;;;;14.00;13.20;;;;;;;;;;5066665;28;20037;-65
2023/12/06 07:16:21;;;;;;;13.75;12.98;;;;;;;;;;5064541;28;20522;-66
2023/12/06 07:18:49;;;;;;;15.00;14.10;;;;;;;;;;5062603;28;20025;-68
2023/12/06 07:21:14;;;;;;;13.93;13.13;;;;;;;;;;5066305;28;20031;-68
2023/12/06 07:23:40;;;;;;;13.68;12.93;;;;;;;;;;5064221;28;20016;-68
2023/12/06 07:26:08;;;;;;;14.13;13.32;;;;;;;;;;5070584;28;20464;-67
2023/12/06 07:28:33;;;;;;;13.77;13.00;;;;;;;;;;5064407;28;20025;-66
2023/12/06 07:30:59;;;;;;;13.93;13.13;;;;;;;;;;5062705;28;20020;-66
2023/12/06 07:33:26;;;;;;;13.40;12.70;;;;;;;;;;5060086;28;22585;-66
2023/12/06 07:35:51;;;;;;;12.70;12.05;;;;;;;;;;5064815;28;20376;-67
2023/12/06 07:38:17;;;;;;;13.10;12.40;;;;;;;;;;5065267;28;20028;-67
2023/12/06 07:40:42;;;;;;;13.10;12.40;;;;;;;;;;5064563;28;20031;-67
2023/12/06 07:43:07;;;;;;;13.65;12.95;;;;;;;;;;5078171;28;20063;-66
2023/12/06 07:45:33;;;;;;;13.43;12.73;;;;;;;;;;5068502;28;20035;-65
2023/12/06 07:47:58;;;;;;;14.10;13.30;;;;;;;;;;5054838;28;20082;-66
2023/12/06 07:50:25;;;;;;;12.93;12.27;;;;;;;;;;5066702;28;20108;-66
2023/12/06 07:52:50;;;;;;;14.05;13.25;;;;;;;;;;5063689;28;20388;-66
2023/12/06 07:55:16;;;;;;;13.98;13.18;;;;;;;;;;5062568;28;20032;-68
2023/12/06 07:57:42;;;;;;;13.25;12.55;;;;;;;;;;5059817;28;20025;-68
2023/12/06 08:00:11;;;;;;;15.38;14.48;;;;;;;;;;5059097;28;20031;-68
2023/12/06 08:02:39;;;;;;;13.88;13.10;;;;;;;;;;5059074;28;20021;-79
2023/12/06 08:05:05;;;;;;;13.32;12.63;;;;;;;;;;5054485;28;20021;-68
2023/12/06 08:07:31;;;;;;;13.98;13.18;;;;;;;;;;5057113;28;20032;-70
2023/12/06 08:09:56;;;;;;;14.27;13.48;;;;;;;;;;5060576;28;20028;-69
2023/12/06 08:12:22;;;;;;;13.73;13.02;;;;;;;;;;5064270;28;20589;-68
2023/12/06 08:14:47;;;;;;;14.35;13.55;;;;;;;;;;5057859;28;20138;-67
2023/12/06 08:17:12;;;;;;;14.25;13.45;;;;;;;;;;5059918;28;20033;-67
2023/12/06 08:19:38;;;;;;;14.85;13.95;;;;;;;;;;5055438;28;20059;-66
2023/12/06 08:22:03;;;;;;;14.30;13.50;;;;;;;;;;5056870;28;20024;-68
2023/12/06 08:24:28;;;;;;;13.43;12.73;;;;;;;;;;5063447;28;20027;-67
2023/12/06 08:26:54;;;;;;;13.20;12.50;;;;;;;;;;5059509;28;20230;-67
2023/12/06 08:29:19;;;;;;;14.35;13.55;;;;;;;;;;5062292;28;20025;-68
2023/12/06 08:31:45;;;;;;;13.52;12.80;;;;;;;;;;5058539;28;20484;-70
2023/12/06 08:34:10;;;;;;;13.52;12.82;;;;;;;;;;5055036;28;20070;-68
2023/12/06 08:36:35;;;;;;;13.93;13.13;;;;;;;;;;5056142;28;20031;-69
2023/12/06 08:39:01;;;;;;;14.40;13.60;;;;;;;;;;5061383;28;20021;-67
2023/12/06 08:41:26;;;;;;;13.75;13.05;;;;;;;;;;5054830;28;20361;-68
2023/12/06 08:43:51;;;;;;;14.38;13.57;;;;;;;;;;5061089;28;20021;-66
2023/12/06 08:46:18;;;;;;;13.88;13.07;;;;;;;;;;5057525;28;20021;-68
2023/12/06 08:48:43;;;;;;;14.10;13.30;;;;;;;;;;5057900;28;20020;-69
2023/12/06 08:51:09;;;;;;;14.05;13.25;;;;;;;;;;5060790;28;20021;-68
2023/12/06 08:53:34;;;;;;;14.07;13.27;;;;;;;;;;5062357;28;20440;-65
2023/12/06 08:56:00;;;;;;;13.25;12.55;;;;;;;;;;5054627;28;20027;-68
2023/12/06 08:58:25;;;;;;;14.57;13.77;;;;;;;;;;5055720;28;20052;-68
2023/12/06 09:00:50;;;;;;;14.00;13.20;;;;;;;;;;5056681;28;20048;-68
2023/12/06 09:03:16;;;;;;;13.27;12.57;;;;;;;;;;5056780;28;20463;-69
2023/12/06 09:05:41;;;;;;;14.10;13.30;;;;;;;;;;5062845;28;20103;-66
2023/12/06 09:08:06;;;;;;;13.95;13.15;;;;;;;;;;5056861;28;20025;-66
2023/12/06 09:10:32;;;;;;;14.48;13.68;;;;;;;;;;5058144;28;20036;-66
2023/12/06 09:12:57;;;;;;;13.80;13.00;;;;;;;;;;5057241;28;20028;-68
2023/12/06 09:15:22;;;;;;;13.93;13.13;;;;;;;;;;5058574;28;20092;-67
2023/12/06 09:17:48;;;;;;;14.02;13.23;;;;;;;;;;5056168;28;20111;-68
2023/12/06 09:20:15;;;;;;;13.52;12.82;;;;;;;;;;5056740;28;20056;-66
2023/12/06 09:22:40;;;;;;;13.40;12.70;;;;;;;;;;5057762;28;21146;-67
2023/12/06 09:25:06;;;;;;;12.60;12.00;;;;;;;;;;5058877;28;20024;-68
2023/12/06 09:27:32;;;;;;;14.27;13.48;;;;;;;;;;5056099;28;20032;-69
2023/12/06 09:29:57;;;;;;;14.07;13.27;;;;;;;;;;5057635;28;20035;-66
2023/12/06 09:32:23;;;;;;;13.45;12.75;;;;;;;;;;5067095;28;20040;-66
2023/12/06 09:34:48;;;;;;;14.68;13.80;;;;;;;;;;5057305;28;20029;-65
2023/12/06 09:37:15;;;;;;;13.98;13.18;;;;;;;;;;5065149;28;20024;-66
2023/12/06 09:39:40;;;;;;;14.82;13.98;;;;;;;;;;5066111;28;20098;-66
2023/12/06 09:42:06;;;;;;;13.93;13.15;;;;;;;;;;5061271;28;20616;-68
2023/12/06 09:44:32;;;;;;;13.55;12.85;;;;;;;;;;5065335;28;20046;-68
2023/12/06 09:46:57;;;;;;;13.75;13.05;;;;;;;;;;5063716;28;20388;-70
2023/12/06 09:49:22;;;;;;;14.18;13.38;;;;;;;;;;5064799;28;20021;-69
2023/12/06 09:51:50;;;;;;;13.15;12.45;;;;;;;;;;5061784;28;20108;-67
2023/12/06 09:54:15;;;;;;;13.23;12.52;;;;;;;;;;5077964;28;20028;-67
2023/12/06 09:56:41;;;;;;;13.35;12.65;;;;;;;;;;5067877;28;20028;-70
2023/12/06 09:59:06;;;;;;;13.18;12.48;;;;;;;;;;5067872;28;20387;-65
2023/12/06 10:01:32;;;;;;;14.07;13.27;;;;;;;;;;5063012;28;20040;-67
2023/12/06 10:03:58;;;;;;;13.65;12.95;;;;;;;;;;5060971;28;20042;-68
2023/12/06 10:06:23;;;;;;;13.63;12.93;;;;;;;;;;5065855;28;20592;-68
2023/12/06 10:08:51;;;;;;;14.88;13.98;;;;;;;;;;5062199;28;20485;-66
2023/12/06 10:11:21;;;;;;;13.75;13.05;;;;;;;;;;5064405;28;20388;-68
2023/12/06 10:13:47;;;;;;;14.20;13.40;;;;;;;;;;5069487;28;20013;-67
2023/12/06 10:16:13;;;;;;;14.10;13.30;;;;;;;;;;5072407;28;20049;-68
2023/12/06 10:18:39;;;;;;;14.23;13.43;;;;;;;;;;5070200;28;20079;-67
2023/12/06 10:21:05;;;;;;;13.50;12.80;;;;;;;;;;5066254;28;20039;-68
2023/12/06 10:23:30;;;;;;;13.82;13.10;;;;;;;;;;5068439;28;20028;-67
2023/12/06 10:25:56;;;;;;;14.13;13.32;;;;;;;;;;5063314;28;20025;-68
2023/12/06 10:28:21;;;;;;;14.15;13.35;;;;;;;;;;5068876;28;20430;-68
2023/12/06 10:30:47;;;;;;;14.25;13.45;;;;;;;;;;5066235;28;20037;-68
2023/12/06 10:33:12;;;;;;;13.50;12.80;;;;;;;;;;5065913;28;20036;-68
2023/12/06 10:35:37;;;;;;;13.77;13.07;;;;;;;;;;5061730;28;20086;-68
2023/12/06 10:38:03;;;;;;;14.52;13.70;;;;;;;;;;5063156;28;20020;-67
2023/12/06 10:40:29;;;;;;;13.93;13.13;;;;;;;;;;5063605;28;20057;-69
2023/12/06 10:43:03;;;;;;;14.05;13.25;;;;;;;;;;5059567;28;20016;-71
2023/12/06 10:45:30;;;;;;;14.55;13.75;;;;;;;;;;5082227;28;20028;-68
2023/12/06 10:47:55;;;;;;;14.30;13.50;;;;;;;;;;5062134;28;20020;-68
2023/12/06 10:50:21;;;;;;;14.93;14.05;;;;;;;;;;5061916;28;20033;-67
2023/12/06 10:52:47;;;;;;;13.65;12.90;;;;;;;;;;5059774;28;20025;-67
2023/12/06 10:55:15;;;;;;;14.00;13.20;;;;;;;;;;5067094;28;20029;-69
2023/12/06 10:57:41;;;;;;;14.50;13.70;;;;;;;;;;5064325;28;20025;-69
2023/12/06 11:00:07;;;;;;;12.73;12.10;;;;;;;;;;5063602;28;20028;-68
2023/12/06 11:02:33;;;;;;;13.25;12.55;;;;;;;;;;5063838;28;20059;-70
2023/12/06 11:05:05;;;;;;;13.77;13.02;;;;;;;;;;5066954;28;20023;-68
2023/12/06 11:07:37;;;;;;;13.82;13.07;;;;;;;;;;5066068;28;20115;-68
2023/12/06 11:10:09;;;;;;;14.95;14.05;;;;;;;;;;5068621;28;20111;-70
2023/12/06 11:12:40;;;;;;;13.63;12.93;;;;;;;;;;5068492;28;20024;-69
2023/12/06 11:15:16;;;;;;;13.50;12.80;;;;;;;;;;5069765;28;20129;-69
2023/12/06 11:17:45;;;;;;;13.45;12.75;;;;;;;;;;5060162;28;20028;-68
2023/12/06 11:20:11;;;;;;;15.73;14.77;;;;;;;;;;5061994;28;20111;-67
2023/12/06 11:22:37;;;;;;;13.20;12.50;;;;;;;;;;5061592;28;20154;-68
2023/12/06 11:25:04;;;;;;;13.38;12.68;;;;;;;;;;5061822;28;20044;-67
2023/12/06 11:27:29;;;;;;;14.10;13.30;;;;;;;;;;5054696;28;20794;-70
2023/12/06 11:29:55;;;;;;;13.20;12.50;;;;;;;;;;5062141;28;20059;-70
2023/12/06 11:32:20;;;;;;;13.45;12.75;;;;;;;;;;5061736;28;20036;-67
2023/12/06 11:34:53;;;;;;;14.15;13.35;;;;;;;;;;5062100;28;20159;-67
2023/12/06 11:37:19;;;;;;;14.43;13.63;;;;;;;;;;5056742;28;20025;-69
2023/12/06 11:39:48;;;;;;;14.02;13.23;;;;;;;;;;5069425;28;20276;-69
2023/12/06 11:42:16;;;;;;;12.77;12.18;;;;;;;;;;5065566;28;20024;-69
2023/12/06 11:44:50;;;;;;;13.32;12.63;;;;;;;;;;5069299;28;20028;-69
2023/12/06 11:47:16;;;;;;;;;;;;;;;;;;5069672;28;20020;-68
2023/12/06 11:49:41;;;;;;;13.17;12.47;;;;;;;;;;5064085;28;19909;-68
2023/12/06 11:52:10;;;;;;;13.32;12.63;;;;;;;;;;5064358;28;20908;-67
2023/12/06 11:54:43;;;;;;;14.27;13.48;;;;;;;;;;5060662;28;20659;-67
2023/12/06 11:57:10;;;;;;;13.67;12.97;;;;;;;;;;5069731;28;20074;-69
2023/12/06 11:59:35;;;;;;;13.23;12.52;;;;;;;;;;5069648;28;20400;-68
2023/12/06 12:02:01;;;;;;;14.00;13.20;;;;;;;;;;5064735;28;20548;-69
2023/12/06 12:04:27;;;;;;;13.63;12.93;;;;;;;;;;5067832;28;20025;-69
2023/12/06 12:06:52;;;;;;;15.50;14.60;;;;;;;;;;5055120;28;20024;-69
2023/12/06 12:09:18;;;;;;;13.70;12.98;;;;;;;;;;5060018;28;20402;-67
2023/12/06 12:11:45;;;;;;;14.52;13.73;;;;;;;;;;5062911;28;20028;-68
2023/12/06 12:14:10;;;;;;;13.50;12.80;;;;;;;;;;5063461;28;20021;-68
2023/12/06 12:16:36;;;;;;;13.73;13.00;;;;;;;;;;5061954;28;20054;-67
2023/12/06 12:19:03;;;;;;;13.40;12.70;;;;;;;;;;5056042;28;20483;-67
2023/12/06 12:21:29;;;;;;;13.98;13.18;;;;;;;;;;5056930;28;20033;-67
2023/12/06 12:23:57;;;;;;;13.18;12.48;;;;;;;;;;5060086;28;20112;-65
2023/12/06 12:26:22;;;;;;;13.55;12.85;;;;;;;;;;5065579;28;20043;-67
2023/12/06 12:28:48;;;;;;;14.55;13.75;;;;;;;;;;5062598;28;20028;-67
2023/12/06 12:31:16;;;;;;;14.30;13.50;;;;;;;;;;5055220;28;20029;-66
2023/12/06 12:33:42;;;;;;;15.13;14.23;;;;;;;;;;5060887;28;20027;-65
2023/12/06 12:36:08;;;;;;;13.93;13.13;;;;;;;;;;5058947;28;20119;-67
2023/12/06 12:38:34;;;;;;;14.73;13.90;;;;;;;;;;5060545;28;20039;-66
2023/12/06 12:41:00;;;;;;;14.32;13.52;;;;;;;;;;5059596;28;20024;-66
2023/12/06 12:43:26;;;;;;;14.35;13.55;;;;;;;;;;5064969;28;20495;-67
2023/12/06 12:45:51;;;;;;;13.10;12.43;;;;;;;;;;5061753;28;20017;-66
2023/12/06 12:48:17;;;;;;;13.75;13.05;;;;;;;;;;5059313;28;20040;-67
2023/12/06 12:50:42;;;;;;;14.55;13.73;;;;;;;;;;5054158;28;20103;-66
2023/12/06 12:53:07;;;;;;;13.50;12.80;;;;;;;;;;5054911;28;20037;-67
2023/12/06 12:55:33;;;;;;;13.25;12.55;;;;;;;;;;5058061;28;20396;-67
2023/12/06 12:57:58;;;;;;;14.43;13.63;;;;;;;;;;5056250;28;20040;-66
2023/12/06 13:00:29;;;;;;;14.05;13.25;;;;;;;;;;5065448;28;20021;-67
2023/12/06 13:02:56;;;;;;;14.95;14.05;;;;;;;;;;5058845;28;20103;-68
2023/12/06 13:05:22;;;;;;;14.45;13.65;;;;;;;;;;5054456;28;20056;-66
2023/12/06 13:08:06;;;;;;;14.13;13.32;;;;;;;;;;5065762;28;20387;-67
2023/12/06 13:10:31;;;;;;;12.98;12.27;;;;;;;;;;5061968;28;20492;-65
2023/12/06 13:12:56;;;;;;;14.60;13.80;;;;;;;;;;5066071;28;20028;-68
2023/12/06 13:15:22;;;;;;;13.55;12.85;;;;;;;;;;5065627;28;20399;-65
2023/12/06 13:17:48;;;;;;;14.18;13.38;;;;;;;;;;5061338;28;20468;-67
2023/12/06 13:20:14;;;;;;;13.48;12.77;;;;;;;;;;5075389;28;20093;-66
2023/12/06 13:22:39;;;;;;;14.35;13.55;;;;;;;;;;5067843;28;20032;-66
2023/12/06 13:25:05;;;;;;;14.23;13.43;;;;;;;;;;5062206;28;20433;-67
2023/12/06 13:27:30;;;;;;;12.30;11.70;;;;;;;;;;5061799;28;20032;-69
2023/12/06 13:29:56;;;;;;;13.38;12.68;;;;;;;;;;5061269;28;20805;-68
2023/12/06 13:32:22;;;;;;;13.93;13.15;;;;;;;;;;5063715;28;20060;-68
2023/12/06 13:34:47;;;;;;;14.27;13.48;;;;;;;;;;5065391;28;20024;-66
2023/12/06 13:37:13;;;;;;;13.25;12.55;;;;;;;;;;5066987;28;20743;-67
2023/12/06 13:39:39;;;;;;;14.35;13.55;;;;;;;;;;5064638;28;20025;-67
2023/12/06 13:42:05;;;;;;;14.70;13.85;;;;;;;;;;5062679;28;20096;-67
2023/12/06 13:44:31;;;;;;;14.38;13.57;;;;;;;;;;5064657;28;20036;-66
2023/12/06 13:46:56;;;;;;;13.48;12.77;;;;;;;;;;5062055;28;20021;-67
2023/12/06 13:49:22;;;;;;;12.60;12.00;;;;;;;;;;5067611;28;20111;-69
2023/12/06 13:51:47;;;;;;;13.05;12.35;;;;;;;;;;5066440;28;20036;-68
2023/12/06 13:54:13;;;;;;;14.15;13.35;;;;;;;;;;5064315;28;20487;-68
2023/12/06 13:56:38;;;;;;;14.52;13.73;;;;;;;;;;5066538;28;20149;-68
2023/12/06 13:59:04;;;;;;;14.43;13.63;;;;;;;;;;5063083;28;20489;-69
2023/12/06 14:01:29;;;;;;;14.88;14.02;;;;;;;;;;5073498;28;20043;-67
2023/12/06 14:03:57;;;;;;;13.98;13.18;;;;;;;;;;5065019;28;20016;-66
2023/12/06 14:06:23;;;;;;;13.93;13.13;;;;;;;;;;5061276;28;20028;-66
2023/12/06 14:08:48;;;;;;;14.05;13.25;;;;;;;;;;5068446;28;20031;-68
2023/12/06 14:11:14;;;;;;;13.52;12.82;;;;;;;;;;5061691;28;20087;-66